Skip Navigation LinksHome page > Tools > METAR decoder Skip Navigation Links

METAR decoder

Settings

METAR

Chicago O'Hare Intl, Chicago

For information only: do not use for flight planning or navigation.
Latest weather
Observation time Tuesday, October 21, 2014 1:51 AM CDT
Local time Tuesday, October 21, 2014 2:02 AM CDT
Flight conditions Visual Meteorological Conditions
Winds
Wind direction North (350°)
Wind speed 6 mph
Visibility 10 mi.
Sky condition
Ceiling 4,800 ft. overcast
Cloud layer few clouds 2,700 ft.
Cloud layer overcast 4,800 ft.
Temperature 51°F
Dewpoint 43°F
Altimeter 30.01 in.Hg
Derived measurements
Relative humidity 74%
Density altitude 177 ft.
Sea-level pressure 30.01 in.Hg
Remarks
System requires maintenance.
Automated weather observing station with precipitation discriminator.
METAR KORD 210651Z 35005KT 10SM FEW027 OVC048 11/06 A3001 RMK AO2 SLP162 T01060061 $

InnerDrive.Weather 4.0.5399.0 Release CLR 4.0.30319.34014
Copyright ©2014 Inner Drive Technology. All rights reserved. Portions Copyright ©1986-2014 David Braverman.

Find weather

Site navigation


Skip Navigation Links

Place info

Page info

PayPal - The safer, easier way to pay online!

Return home.

Copyright ©2014 Inner Drive Technology. Purveyors of fine, hand-crafted computer software. Page printed 2014-10-21T07:02:33 UTC.